createdAt,value
2018-09-07T00:00:09.761Z,99851.30
2018-09-07T00:02:44.327Z,99851.77
2018-09-07T00:05:17.430Z,99856.84
2018-09-07T00:07:44.377Z,99853.09
2018-09-07T00:10:11.335Z,99858.86
2018-09-07T00:12:38.291Z,99856.11
2018-09-07T00:15:05.299Z,99852.98
2018-09-07T00:17:32.337Z,99858.26
2018-09-07T00:19:59.241Z,99854.81
2018-09-07T00:22:26.214Z,99862.56
2018-09-07T00:24:53.191Z,99861.98
2018-09-07T00:27:22.194Z,99862.11
2018-09-07T00:29:49.855Z,99866.66
2018-09-07T00:32:16.795Z,99858.47
2018-09-07T00:34:44.807Z,99859.58
2018-09-07T00:37:13.309Z,99857.83
2018-09-07T00:39:43.627Z,99861.39
2018-09-07T00:42:13.566Z,99861.48
2018-09-07T00:44:40.533Z,99862.70
2018-09-07T00:47:07.487Z,99866.66
2018-09-07T00:49:34.615Z,99867.12
2018-09-07T00:52:03.679Z,99871.30
2018-09-07T00:54:32.388Z,99873.52
2018-09-07T00:56:59.488Z,99867.05
2018-09-07T00:59:26.481Z,99866.02
2018-09-07T01:01:53.500Z,99873.04
2018-09-07T01:04:20.476Z,99873.75
2018-09-07T01:06:47.443Z,99882.74
2018-09-07T01:09:14.422Z,99889.33
2018-09-07T01:14:25.840Z,99896.83
2018-09-07T01:16:52.839Z,99899.68
2018-09-07T01:19:19.842Z,99904.58
2018-09-07T01:21:46.803Z,99904.33
2018-09-07T01:24:16.427Z,99897.91
2018-09-07T01:26:44.411Z,99900.34
2018-09-07T01:29:11.334Z,99894.46
2018-09-07T01:31:38.327Z,99894.82
2018-09-07T01:34:05.935Z,99888.40
2018-09-07T01:36:32.962Z,99895.64
2018-09-07T01:38:59.916Z,99899.31
2018-09-07T01:41:26.846Z,99902.88
2018-09-07T01:43:56.783Z,99892.45
2018-09-07T01:46:24.370Z,99893.08
2018-09-07T01:48:51.323Z,99893.06
2018-09-07T01:51:18.291Z,99894.35
2018-09-07T01:53:45.239Z,99903.36
2018-09-07T01:56:12.189Z,99903.88
2018-09-07T01:58:41.192Z,99904.38
2018-09-07T02:01:09.903Z,99899.32
2018-09-07T02:03:36.869Z,99897.39
2018-09-07T02:06:05.470Z,99893.70
2018-09-07T02:08:32.427Z,99898.97
2018-09-07T02:11:00.098Z,99901.87
2018-09-07T02:13:28.335Z,99900.25
2018-09-07T02:15:55.611Z,99897.80
2018-09-07T02:18:23.284Z,99895.67
2018-09-07T02:20:50.295Z,99895.33
2018-09-07T02:23:17.247Z,99893.75
2018-09-07T02:25:44.237Z,99895.11
2018-09-07T02:28:11.151Z,99890.18
2018-09-07T02:30:38.136Z,99893.35
2018-09-07T02:33:05.058Z,99881.53
2018-09-07T02:35:32.121Z,99882.14
2018-09-07T02:38:00.118Z,99884.03
2018-09-07T02:40:27.063Z,99882.21
2018-09-07T02:42:54.116Z,99882.52
2018-09-07T02:45:21.094Z,99879.48
2018-09-07T02:47:48.139Z,99882.64
2018-09-07T02:50:15.124Z,99877.06
2018-09-07T02:52:42.064Z,99884.77
2018-09-07T02:55:09.943Z,99877.69
2018-09-07T02:57:36.908Z,99874.25
2018-09-07T03:00:04.487Z,99870.69
2018-09-07T03:02:33.651Z,99875.58
2018-09-07T03:05:01.463Z,99877.86
2018-09-07T03:07:30.488Z,99887.81
2018-09-07T03:09:57.434Z,99883.55
2018-09-07T03:12:24.423Z,99889.64
2018-09-07T03:14:51.939Z,99894.69
2018-09-07T03:17:19.075Z,99889.22
2018-09-07T03:19:49.132Z,99892.44
2018-09-07T03:22:16.898Z,99894.78
2018-09-07T03:24:44.877Z,99902.70
2018-09-07T03:27:11.856Z,99904.95
2018-09-07T03:29:38.755Z,99907.14
2018-09-07T03:32:05.787Z,99907.11
2018-09-07T03:34:32.804Z,99905.89
2018-09-07T03:36:59.796Z,99899.92
2018-09-07T03:39:26.727Z,99896.69
2018-09-07T03:41:53.814Z,99901.06
2018-09-07T03:44:20.745Z,99900.02
2018-09-07T03:46:47.715Z,99904.65
2018-09-07T03:49:15.503Z,99903.00
2018-09-07T03:51:42.449Z,99906.25
2018-09-07T03:54:09.405Z,99910.29
2018-09-07T03:56:36.380Z,99919.63
2018-09-07T03:59:03.583Z,99918.63
2018-09-07T04:01:31.484Z,99922.08
2018-09-07T04:03:58.479Z,99925.16
2018-09-07T04:06:25.419Z,99924.83
2018-09-07T04:08:52.365Z,99928.69
2018-09-07T04:11:19.394Z,99931.51
2018-09-07T04:13:46.271Z,99937.66
2018-09-07T04:16:13.270Z,99934.83
2018-09-07T04:18:40.208Z,99936.41
2018-09-07T04:21:07.474Z,99939.67
2018-09-07T04:23:36.233Z,99934.72
2018-09-07T04:26:03.386Z,99929.30
2018-09-07T04:28:32.539Z,99917.92
2018-09-07T04:31:02.588Z,99923.09
2018-09-07T04:33:31.131Z,99926.02
2018-09-07T04:35:58.239Z,99924.20
2018-09-07T04:38:25.211Z,99926.33
2018-09-07T04:40:54.433Z,99930.67
2018-09-07T04:43:21.976Z,99938.66
2018-09-07T04:45:48.928Z,99950.23
2018-09-07T04:48:17.612Z,99959.80
2018-09-07T04:50:44.478Z,99955.55
2018-09-07T04:53:12.987Z,99960.44
2018-09-07T04:55:39.911Z,99967.20
2018-09-07T04:58:07.527Z,99959.32
2018-09-07T05:00:34.511Z,99958.44
2018-09-07T05:03:01.546Z,99953.22
2018-09-07T05:05:28.487Z,99958.31
2018-09-07T05:07:55.441Z,99961.20
2018-09-07T05:10:22.406Z,99954.73
2018-09-07T05:12:50.328Z,99953.33
2018-09-07T05:15:17.330Z,99965.86
2018-09-07T05:17:45.304Z,99967.52
2018-09-07T05:20:12.995Z,99977.01
2018-09-07T05:22:39.964Z,99974.27
2018-09-07T05:25:06.867Z,99978.08
2018-09-07T05:27:33.883Z,99982.21
2018-09-07T05:30:02.766Z,99985.20
2018-09-07T05:32:30.561Z,99982.74
2018-09-07T05:34:57.498Z,99985.45
2018-09-07T05:37:24.445Z,99996.60
2018-09-07T05:39:51.405Z,99991.30
2018-09-07T05:42:18.360Z,99992.28
2018-09-07T05:44:45.327Z,99985.23
2018-09-07T05:47:13.467Z,99988.02
2018-09-07T05:49:40.605Z,99993.93
2018-09-07T05:52:07.639Z,99995.57
2018-09-07T05:54:34.591Z,99996.19
2018-09-07T05:57:01.555Z,100001.25
2018-09-07T05:59:28.493Z,100003.96
2018-09-07T06:01:55.443Z,100007.70
2018-09-07T06:04:22.414Z,100001.22
2018-09-07T06:06:49.466Z,100000.91
2018-09-07T06:09:17.023Z,99997.50
2018-09-07T06:11:44.003Z,99995.06
2018-09-07T06:14:10.962Z,100005.47
2018-09-07T06:16:38.553Z,100012.58
2018-09-07T06:19:05.476Z,100024.81
2018-09-07T06:21:32.435Z,100021.08
2018-09-07T06:24:00.375Z,100023.20
2018-09-07T06:26:28.107Z,100021.29
2018-09-07T06:28:55.086Z,100024.08
2018-09-07T06:31:22.032Z,100019.53
2018-09-07T06:33:49.011Z,100022.55
2018-09-07T06:36:16.012Z,100029.30
2018-09-07T06:38:43.085Z,100033.09
2018-09-07T06:41:09.919Z,100021.20
2018-09-07T06:43:36.887Z,100029.58
2018-09-07T06:46:04.236Z,100020.08
2018-09-07T06:48:31.171Z,100025.45
2018-09-07T06:50:58.178Z,100024.25
2018-09-07T06:53:26.080Z,100025.62
2018-09-07T06:55:53.004Z,100028.42
2018-09-07T06:58:20.148Z,100044.05
2018-09-07T07:00:47.151Z,100040.91
2018-09-07T07:03:14.057Z,100043.34
2018-09-07T07:05:41.056Z,100052.07
2018-09-07T07:08:08.014Z,100048.62
2018-09-07T07:10:34.996Z,100050.25
2018-09-07T07:13:01.935Z,100050.94
2018-09-07T07:15:28.860Z,100050.28
2018-09-07T07:17:55.828Z,100047.13
2018-09-07T07:20:22.791Z,100051.50
2018-09-07T07:22:49.739Z,100056.19
2018-09-07T07:25:16.671Z,100052.45
2018-09-07T07:27:43.655Z,100048.56
2018-09-07T07:30:10.647Z,100060.96
2018-09-07T07:32:37.575Z,100058.98
2018-09-07T07:35:04.600Z,100057.62
2018-09-07T07:37:31.583Z,100059.73
2018-09-07T07:39:58.555Z,100066.75
2018-09-07T07:42:25.560Z,100065.38
2018-09-07T07:44:52.459Z,100067.22
2018-09-07T07:47:19.391Z,100072.07
2018-09-07T07:49:46.364Z,100068.71
2018-09-07T07:52:13.301Z,100068.86
2018-09-07T07:54:40.310Z,100077.37
2018-09-07T07:57:07.248Z,100077.69
2018-09-07T07:59:34.242Z,100072.30
2018-09-07T08:02:01.234Z,100077.25
2018-09-07T08:04:28.243Z,100080.40
2018-09-07T08:06:55.187Z,100084.16
2018-09-07T08:09:22.119Z,100079.98
2018-09-07T08:11:51.135Z,100086.92
2018-09-07T08:14:18.120Z,100088.71
2018-09-07T08:16:45.069Z,100082.50
2018-09-07T08:19:11.987Z,100082.74
2018-09-07T08:21:39.592Z,100086.91
2018-09-07T08:24:06.852Z,100088.41
2018-09-07T08:26:33.859Z,100091.56
2018-09-07T08:29:00.780Z,100095.75
2018-09-07T08:31:27.749Z,100093.40
2018-09-07T08:33:54.655Z,100094.67
2018-09-07T08:36:21.668Z,100100.59
2018-09-07T08:38:49.525Z,100098.58
2018-09-07T08:41:16.505Z,100100.72
2018-09-07T08:43:43.427Z,100093.72
2018-09-07T08:46:10.401Z,100103.19
2018-09-07T08:48:37.365Z,100105.92
2018-09-07T08:51:04.427Z,100112.66
2018-09-07T08:53:31.343Z,100113.89
2018-09-07T08:55:58.455Z,100119.89
2018-09-07T08:58:25.411Z,100124.95
2018-09-07T09:00:53.383Z,100124.95
2018-09-07T09:03:20.293Z,100129.02
2018-09-07T09:05:47.301Z,100132.28
2018-09-07T09:08:14.330Z,100124.61
2018-09-07T09:10:41.292Z,100131.03
2018-09-07T09:13:08.271Z,100127.31
2018-09-07T09:15:35.360Z,100113.25
2018-09-07T09:18:02.266Z,100136.16
2018-09-07T09:20:29.220Z,100126.98
2018-09-07T09:22:56.259Z,100130.62
2018-09-07T09:25:23.219Z,100132.99
2018-09-07T09:27:50.215Z,100130.19
2018-09-07T09:30:17.171Z,100134.88
2018-09-07T09:32:44.159Z,100134.09
2018-09-07T09:35:11.072Z,100145.40
2018-09-07T09:37:38.002Z,100138.20
2018-09-07T09:40:06.029Z,100137.67
2018-09-07T09:42:33.044Z,100144.72
2018-09-07T09:45:00.133Z,100139.52
2018-09-07T09:47:27.635Z,100140.19
2018-09-07T09:49:55.177Z,100152.09
2018-09-07T09:52:22.153Z,100155.80
2018-09-07T09:54:49.087Z,100153.09
2018-09-07T09:57:16.060Z,100157.58
2018-09-07T09:59:43.079Z,100141.80
2018-09-07T10:02:15.790Z,100162.86
2018-09-07T10:04:42.753Z,100161.82
2018-09-07T10:07:09.748Z,100163.32
2018-09-07T10:09:36.668Z,100157.89
2018-09-07T10:12:04.025Z,100146.12
2018-09-07T10:14:30.955Z,100151.95
2018-09-07T10:16:57.948Z,100154.86
2018-09-07T10:19:25.499Z,100154.53
2018-09-07T10:21:52.505Z,100157.09
2018-09-07T10:24:19.464Z,100147.17
2018-09-07T10:26:46.391Z,100150.33
2018-09-07T10:29:13.370Z,100149.30
2018-09-07T10:31:40.330Z,100139.80
2018-09-07T10:34:07.330Z,100144.81
2018-09-07T10:36:34.249Z,100145.48
2018-09-07T10:39:01.196Z,100145.16
2018-09-07T10:41:28.143Z,100146.72
2018-09-07T10:43:55.762Z,100158.08
2018-09-07T10:46:22.844Z,100142.17
2018-09-07T10:48:50.955Z,100139.16
2018-09-07T10:51:17.895Z,100142.14
2018-09-07T10:53:44.868Z,100146.11
2018-09-07T10:56:11.915Z,100140.92
2018-09-07T10:58:39.615Z,100140.90
2018-09-07T11:01:06.611Z,100140.67
2018-09-07T11:03:34.296Z,100137.77
2018-09-07T11:06:01.203Z,100147.09
2018-09-07T11:08:28.239Z,100150.17
2018-09-07T11:10:55.223Z,100156.59
2018-09-07T11:13:22.194Z,100163.13
2018-09-07T11:15:49.135Z,100160.05
2018-09-07T11:18:16.093Z,100159.72
2018-09-07T11:20:43.124Z,100158.63
2018-09-07T11:23:10.737Z,100158.34
2018-09-07T11:25:37.703Z,100163.64
2018-09-07T11:28:05.255Z,100163.50
2018-09-07T11:30:32.179Z,100168.42
2018-09-07T11:32:59.168Z,100170.13
2018-09-07T11:35:32.216Z,100177.80
2018-09-07T11:37:59.744Z,100176.60
2018-09-07T11:40:26.771Z,100176.72
2018-09-07T11:42:53.723Z,100186.78
2018-09-07T11:45:20.807Z,100188.94
2018-09-07T11:47:48.875Z,100188.66
2018-09-07T11:50:15.832Z,100195.55
2018-09-07T11:52:42.731Z,100189.80
2018-09-07T11:55:09.969Z,100185.52
2018-09-07T11:57:36.979Z,100187.40
2018-09-07T12:00:03.864Z,100186.37
2018-09-07T12:02:31.789Z,100194.62
2018-09-07T12:04:58.804Z,100187.98
2018-09-07T12:07:25.681Z,100202.49
2018-09-07T12:09:52.647Z,100202.50
2018-09-07T12:12:19.656Z,100185.32
2018-09-07T12:14:46.574Z,100201.17
2018-09-07T12:17:15.325Z,100188.30
2018-09-07T12:19:42.315Z,100189.34
2018-09-07T12:22:10.192Z,100183.17
2018-09-07T12:24:37.250Z,100193.88
2018-09-07T12:27:04.243Z,100189.63
2018-09-07T12:29:31.167Z,100187.26
2018-09-07T12:31:58.127Z,100192.98
2018-09-07T12:34:26.040Z,100193.17
2018-09-07T12:36:53.005Z,100198.34
2018-09-07T12:39:20.019Z,100194.41
2018-09-07T12:41:48.167Z,100197.34
2018-09-07T12:44:15.312Z,100193.77
2018-09-07T12:46:43.272Z,100194.33
2018-09-07T12:49:10.220Z,100200.69
2018-09-07T12:51:37.583Z,100194.99
2018-09-07T12:54:04.635Z,100203.63
2018-09-07T12:56:31.608Z,100213.42
2018-09-07T12:58:58.601Z,100210.93
2018-09-07T13:01:25.512Z,100205.78
2018-09-07T13:03:52.495Z,100204.38
2018-09-07T13:06:22.163Z,100214.80
2018-09-07T13:08:49.152Z,100210.27
2018-09-07T13:11:16.068Z,100208.25
2018-09-07T13:13:43.030Z,100211.48
2018-09-07T13:16:10.007Z,100204.84
2018-09-07T13:18:36.972Z,100212.55
2018-09-07T13:21:04.844Z,100207.33
2018-09-07T13:23:31.818Z,100209.97
2018-09-07T13:25:59.270Z,100208.17
2018-09-07T13:28:26.211Z,100219.31
2018-09-07T13:30:53.275Z,100209.42
2018-09-07T13:33:20.163Z,100218.36
2018-09-07T13:35:47.875Z,100228.10
2018-09-07T13:38:14.755Z,100218.77
2018-09-07T13:40:41.736Z,100225.77
2018-09-07T13:43:08.691Z,100230.56
2018-09-07T13:45:35.671Z,100228.24
2018-09-07T13:48:02.615Z,100232.27
2018-09-07T13:50:29.553Z,100241.61
2018-09-07T13:52:56.591Z,100234.63
2018-09-07T13:55:23.502Z,100243.41
2018-09-07T13:57:50.497Z,100249.27
2018-09-07T14:00:17.414Z,100247.39
2018-09-07T14:02:44.288Z,100243.50
2018-09-07T14:05:11.215Z,100241.75
2018-09-07T14:07:39.136Z,100241.09
2018-09-07T14:10:06.783Z,100249.47
2018-09-07T14:12:33.755Z,100246.31
2018-09-07T14:15:00.734Z,100246.91
2018-09-07T14:17:27.672Z,100246.31
2018-09-07T14:19:54.605Z,100244.18
2018-09-07T14:22:22.363Z,100244.67
2018-09-07T14:24:49.854Z,100252.85
2018-09-07T14:27:16.875Z,100260.65
2018-09-07T14:29:43.889Z,100256.52
2018-09-07T14:32:10.860Z,100260.42
2018-09-07T14:34:37.775Z,100260.03
2018-09-07T14:37:05.777Z,100255.71
2018-09-07T14:39:32.731Z,100252.92
2018-09-07T14:41:59.726Z,100262.97
2018-09-07T14:44:26.667Z,100250.20
2018-09-07T14:46:54.449Z,100255.49
2018-09-07T14:49:21.379Z,100256.58
2018-09-07T14:51:50.374Z,100260.09
2018-09-07T14:54:17.261Z,100262.32
2018-09-07T14:56:44.183Z,100265.95
2018-09-07T14:59:11.248Z,100264.84
2018-09-07T15:01:39.242Z,100267.28
2018-09-07T15:04:06.226Z,100265.30
2018-09-07T15:06:33.157Z,100264.00
2018-09-07T15:09:01.287Z,100268.27
2018-09-07T15:11:28.225Z,100266.61
2018-09-07T15:13:55.127Z,100268.04
2018-09-07T15:16:22.122Z,100259.60
2018-09-07T15:18:48.987Z,100266.73
2018-09-07T15:21:19.258Z,100263.19
2018-09-07T15:23:46.227Z,100266.38
2018-09-07T15:26:14.205Z,100269.36
2018-09-07T15:28:44.315Z,100274.13
2018-09-07T15:31:11.200Z,100275.33
2018-09-07T15:33:38.152Z,100274.14
2018-09-07T15:36:05.139Z,100271.80
2018-09-07T15:38:32.179Z,100277.42
2018-09-07T15:40:59.604Z,100277.55
2018-09-07T15:43:26.547Z,100285.92
2018-09-07T15:45:53.471Z,100286.28
2018-09-07T15:48:20.407Z,100288.50
2018-09-07T15:50:47.899Z,100296.55
2018-09-07T15:53:14.859Z,100289.52
2018-09-07T15:55:41.813Z,100288.13
2018-09-07T15:58:09.435Z,100290.36
2018-09-07T16:00:36.341Z,100289.75
2018-09-07T16:03:03.311Z,100290.27
2018-09-07T16:05:30.248Z,100290.23
2018-09-07T16:07:57.956Z,100296.66
2018-09-07T16:10:24.927Z,100294.09
2018-09-07T16:12:51.859Z,100296.81
2018-09-07T16:15:18.921Z,100296.03
2018-09-07T16:17:45.895Z,100294.50
2018-09-07T16:20:12.815Z,100291.79
2018-09-07T16:22:39.809Z,100298.06
2018-09-07T16:25:06.735Z,100302.73
2018-09-07T16:27:34.424Z,100299.90
2018-09-07T16:30:01.440Z,100301.84
2018-09-07T16:32:28.387Z,100295.05
2018-09-07T16:34:55.453Z,100300.22
2018-09-07T16:37:22.375Z,100305.91
2018-09-07T16:39:49.327Z,100305.59
2018-09-07T16:42:16.311Z,100305.69
2018-09-07T16:44:45.015Z,100305.50
2018-09-07T16:47:11.887Z,100311.20
2018-09-07T16:49:39.502Z,100308.67
2018-09-07T16:52:06.464Z,100308.84
2018-09-07T16:54:33.455Z,100310.99
2018-09-07T16:57:00.388Z,100306.22
2018-09-07T16:59:27.359Z,100313.12
2018-09-07T17:01:54.315Z,100315.88
2018-09-07T17:04:21.251Z,100321.13
2018-09-07T17:06:50.254Z,100324.09
2018-09-07T17:09:17.175Z,100318.91
2018-09-07T17:11:44.975Z,100319.42
2018-09-07T17:14:11.948Z,100325.02
2018-09-07T17:16:38.899Z,100332.00
2018-09-07T17:19:08.787Z,100329.77
2018-09-07T17:21:40.470Z,100330.30
2018-09-07T17:24:07.443Z,100326.11
2018-09-07T17:26:34.405Z,100328.87
2018-09-07T17:29:01.446Z,100328.55
2018-09-07T17:31:28.403Z,100336.87
2018-09-07T17:33:55.421Z,100333.55
2018-09-07T17:36:22.979Z,100329.47
2018-09-07T17:38:51.450Z,100332.32
2018-09-07T17:41:18.409Z,100332.81
2018-09-07T17:43:45.360Z,100337.59
2018-09-07T17:46:12.331Z,100340.23
2018-09-07T17:48:49.111Z,100337.08
2018-09-07T17:51:16.059Z,100347.84
2018-09-07T17:53:43.055Z,100350.87
2018-09-07T17:56:09.976Z,100353.28
2018-09-07T17:58:37.497Z,100350.27
2018-09-07T18:01:05.042Z,100352.61
2018-09-07T18:03:31.956Z,100349.56
2018-09-07T18:06:02.395Z,100355.45
2018-09-07T18:08:29.319Z,100361.42
2018-09-07T18:10:56.235Z,100358.05
2018-09-07T18:13:24.093Z,100366.37
2018-09-07T18:15:51.067Z,100361.84
2018-09-07T18:18:18.028Z,100366.81
2018-09-07T18:20:45.008Z,100367.11
2018-09-07T18:23:12.451Z,100373.91
2018-09-07T18:25:39.379Z,100378.37
2018-09-07T18:28:06.367Z,100382.53
2018-09-07T18:30:33.343Z,100387.77
2018-09-07T18:33:01.028Z,100394.75
2018-09-07T18:35:28.206Z,100393.25
2018-09-07T18:37:55.601Z,100398.20
2018-09-07T18:40:23.508Z,100401.00
2018-09-07T18:42:50.704Z,100400.98
2018-09-07T18:45:17.599Z,100397.66
2018-09-07T18:47:45.834Z,100405.78
2018-09-07T18:50:12.751Z,100408.41
2018-09-07T18:52:39.645Z,100405.64
2018-09-07T18:55:06.582Z,100407.09
2018-09-07T18:57:33.509Z,100409.58
2018-09-07T19:00:00.398Z,100417.16
2018-09-07T19:02:27.362Z,100415.83
2018-09-07T19:04:54.348Z,100425.76
2018-09-07T19:07:21.307Z,100419.31
2018-09-07T19:09:48.315Z,100424.67
2018-09-07T19:12:16.051Z,100428.92
2018-09-07T19:14:42.968Z,100434.48
2018-09-07T19:17:09.885Z,100439.84
2018-09-07T19:19:36.913Z,100438.34
2018-09-07T19:22:03.803Z,100447.20
2018-09-07T19:24:30.794Z,100451.85
2018-09-07T19:26:57.759Z,100453.67
2018-09-07T19:29:24.647Z,100451.70
2018-09-07T19:31:51.743Z,100451.28
2018-09-07T19:34:18.726Z,100456.55
2018-09-07T19:36:45.971Z,100456.28
2018-09-07T19:39:14.036Z,100456.36
2018-09-07T19:41:41.039Z,100457.48
2018-09-07T19:44:07.997Z,100465.42
2018-09-07T19:46:34.981Z,100466.81
2018-09-07T19:49:02.221Z,100469.84
2018-09-07T19:51:29.872Z,100469.45
2018-09-07T19:53:56.897Z,100464.40
2018-09-07T19:56:23.852Z,100466.62
2018-09-07T19:58:51.542Z,100466.55
2018-09-07T20:01:18.503Z,100469.73
2018-09-07T20:03:46.511Z,100465.56
2018-09-07T20:06:13.520Z,100470.95
2018-09-07T20:08:40.433Z,100466.09
2018-09-07T20:11:07.391Z,100468.16
2018-09-07T20:13:34.383Z,100469.57
2018-09-07T20:16:01.336Z,100472.36
2018-09-07T20:18:28.304Z,100468.75
2018-09-07T20:20:55.227Z,100469.31
2018-09-07T20:23:22.168Z,100472.13
2018-09-07T20:25:49.176Z,100474.33
2018-09-07T20:28:16.127Z,100477.71
2018-09-07T20:30:43.072Z,100478.73
2018-09-07T20:33:10.030Z,100480.42
2018-09-07T20:35:36.979Z,100482.87
2018-09-07T20:38:04.003Z,100484.72
2018-09-07T20:40:31.602Z,100482.22
2018-09-07T20:42:58.577Z,100482.41
2018-09-07T20:45:25.451Z,100485.92
2018-09-07T20:47:54.373Z,100478.27
2018-09-07T20:50:22.098Z,100481.53
2018-09-07T20:52:50.031Z,100488.05
2018-09-07T20:55:18.591Z,100486.79
2018-09-07T20:57:45.484Z,100489.89
2018-09-07T21:00:14.415Z,100493.24
2018-09-07T21:02:41.345Z,100497.66
2018-09-07T21:05:09.367Z,100506.07
2018-09-07T21:07:36.273Z,100506.13
2018-09-07T21:10:04.394Z,100503.51
2018-09-07T21:12:32.127Z,100507.08
2018-09-07T21:14:59.548Z,100517.75
2018-09-07T21:17:26.527Z,100516.48
2018-09-07T21:19:54.039Z,100523.18
2018-09-07T21:22:21.625Z,100523.09
2018-09-07T21:24:48.640Z,100529.73
2018-09-07T21:27:15.565Z,100529.23
2018-09-07T21:29:42.420Z,100524.09
2018-09-07T21:32:09.376Z,100526.86
2018-09-07T21:34:38.379Z,100527.30
2018-09-07T21:37:05.430Z,100530.67
2018-09-07T21:39:32.377Z,100531.62
2018-09-07T21:41:59.272Z,100531.55
2018-09-07T21:44:27.232Z,100539.77
2018-09-07T21:46:54.187Z,100544.68
2018-09-07T21:49:21.154Z,100543.99
2018-09-07T21:51:48.032Z,100546.83
2018-09-07T21:54:14.954Z,100551.12
2018-09-07T21:56:41.924Z,100554.84
2018-09-07T21:59:09.617Z,100553.49
2018-09-07T22:01:36.543Z,100556.36
2018-09-07T22:04:03.467Z,100556.33
2018-09-07T22:06:35.107Z,100554.20
2018-09-07T22:09:01.975Z,100561.53
2018-09-07T22:11:29.599Z,100559.20
2018-09-07T22:13:56.560Z,100570.75
2018-09-07T22:16:23.538Z,100566.46
2018-09-07T22:18:50.483Z,100571.43
2018-09-07T22:21:17.458Z,100577.20
2018-09-07T22:23:44.523Z,100574.30
2018-09-07T22:26:11.419Z,100579.72
2018-09-07T22:28:39.144Z,100583.56
2018-09-07T22:31:06.127Z,100581.31
2018-09-07T22:33:33.036Z,100584.19
2018-09-07T22:36:00.087Z,100593.09
2018-09-07T22:38:27.671Z,100594.34
2018-09-07T22:40:55.643Z,100596.80
2018-09-07T22:43:22.603Z,100588.59
2018-09-07T22:45:50.199Z,100600.13
2018-09-07T22:48:17.663Z,100597.01
2018-09-07T22:50:44.615Z,100600.81
2018-09-07T22:53:11.576Z,100609.17
2018-09-07T22:55:38.567Z,100619.47
2018-09-07T22:58:05.600Z,100624.50
2018-09-07T23:00:32.558Z,100625.93
2018-09-07T23:03:01.547Z,100627.52
2018-09-07T23:05:29.168Z,100622.45
2018-09-07T23:07:59.655Z,100625.69
2018-09-07T23:10:26.616Z,100623.20
2018-09-07T23:12:53.574Z,100631.33
2018-09-07T23:15:20.530Z,100632.76
2018-09-07T23:17:47.486Z,100634.06
2018-09-07T23:20:15.164Z,100635.00
2018-09-07T23:22:42.140Z,100636.66
2018-09-07T23:25:09.113Z,100638.97
2018-09-07T23:27:36.031Z,100639.06
2018-09-07T23:30:03.712Z,100644.39
2018-09-07T23:32:30.636Z,100637.81
2018-09-07T23:34:57.629Z,100634.89
2018-09-07T23:37:24.575Z,100637.17
2018-09-07T23:39:54.578Z,100640.47
2018-09-07T23:42:21.543Z,100638.70
2018-09-07T23:44:48.556Z,100636.22
2018-09-07T23:47:16.231Z,100639.20
2018-09-07T23:49:43.160Z,100635.28
2018-09-07T23:52:10.338Z,100638.71
2018-09-07T23:54:37.288Z,100638.22
2018-09-07T23:57:04.287Z,100632.81
2018-09-07T23:59:31.407Z,100635.62
